Hauptseite
METAR-TAF:

METAR-TAF

Flughäfen :

Leeming, England

RAF Leeming

Breite: 54-18N, Länge: 001-32W, Höhe: 40 m

Beobachtung

Neuester Wetterbericht von vor 1 Stunde und 1 Minuten, um 22:50 UTC
Wind 12 kt aus West
Temperatur 3°C
Luftfeuchtigkeit 75%
Luftdruck 1001 hPa
Sichtweite 10 km oder mehr

METAR: EGXE 182250Z AUTO 28012KT 9999 FEW140/// 03/M01 Q1001

Zeit: 23:51 (23:51 UTC)

Prognose

Neuester Wetterbericht von vor 10 Stunden und 21 Minuten, um 13:30 UTC
Gültige Prognose vom 18 um 15 UTC bis 18 um 19 UTC
Wind 14 kt aus West/Nordwest
Sichtweite 10 km oder mehr
Leicht bewölkt in der Höhe von 1800 ft, Kumulonimbus.
Wahrscheinlichkeit 30% :
Zeitweise
vom 18 um 15 UTC bis 18 um 16 UTC
Sichtweite: 6000 m
Aufgelockert bewölkt in der Höhe von 1800 ft
Regenschauer, Schnee

TAF: EGXE 181330Z 1815/1819 30014KT 9999 FEW018CB PROB30 TEMPO 1815/1816 6000 SHRASN SCT018

Wetterbeobachtungen und Prognosen von mehr als 4000 Flughäfen (METAR und TAF Bericht).

Die verfügbaren Stationen werden durch gelbe und rote Markierungen auf der Karte dargestellt.

Führen Sie die Maus auf sie, um den Namen der Station zu sehen.

Darauf klicken, um die Beobachtung von Wetterbeobachtungen und Prognosen zu sehen.

Um die Karte zu ändern : klicken Sie auf den grünen Tasten mit einem schwarzen Kreuz Zum Vergrößern, auf den grünen Button mit einem Gedankenstrich zu verkleinern, oder auf die grünen Pfeile für benachbarte Karten.


METAR-TAF: